Del Rio International Airport Del Rio US
ICAO: KDRT
IATA: DRT
Category: Medium
Scheduled Services: No

Elevation: 1002 ft
TransAlt. 18000 ft.

Airport Communications:
APP:119.6
ASOS:118.525
CLNC DEL:120.5
DEP:119.6
SAN ANGELO RDO:122.3
CTAF/UNICOM:122.8

KDRT Zoom In..

Runways:

(A) RW 13 length 6300 ft width 100 ft
ILS 111.90 / hdg 132

(B) RW 31 length 6300 ft width 100 ft
---- / hdg 312

Location; KDRT
Day. 29 / Time. 18.53 Zulu
* Altimeter: 30.14
* Temperature: 22° c. 71.6°f.
* Wind from: 300° Speed 14 kn with Gusts up to 21 kn.
Dewpoint: 02° c.
Visibility: 10 Statute Miles.
Clouds: Clear (automated report).

KDRT 291853Z AUTO 30014G21KT 10SM CLR 22/02 A3014 RMK AO2 SLP198 T02220017

Going to: --> -->


Wind From 300°
Speed 14 kn.

 
 
jpsmedia worldairports.se 2020   terms of use